Time;durP1;ratioP1;P1;durP2;ratioP2;P2;SDS_P1;SDS_P2;PMS_P1;PMS_P2;Temp;Humidity;BMP_temperature;BMP_pressure;BME280_temperature;BME280_humidity;BME280_pressure;Samples;Min_cycle;Max_cycle;Signal;HPM_P1;HPM_P2
2022/01/02 00:00:19;;;;;;;32.88;14.88;;;7.10;99.90;;;;;;10342965;28;20052;-64
2022/01/02 00:05:22;;;;;;;41.80;19.05;;;7.00;99.90;;;;;;10130147;28;20104;-64
2022/01/02 00:10:26;;;;;;;25.83;11.90;;;7.00;99.90;;;;;;10351593;28;20107;-64
2022/01/02 00:15:28;;;;;;;26.73;11.45;;;6.90;99.90;;;;;;10339505;28;20038;-64
2022/01/02 00:20:35;;;;;;;25.33;12.00;;;6.80;99.90;;;;;;10340771;28;20054;-64
2022/01/02 00:25:40;;;;;;;31.45;14.30;;;6.70;99.90;;;;;;10343582;28;20111;-64
2022/01/02 00:30:44;;;;;;;25.95;12.43;;;6.60;99.90;;;;;;10348616;28;20117;-64
2022/01/02 00:35:47;;;;;;;26.65;11.60;;;6.50;99.90;;;;;;10343842;28;20050;-64
2022/01/02 00:40:51;;;;;;;26.42;13.05;;;6.50;99.90;;;;;;10347784;28;20476;-64
2022/01/02 00:45:55;;;;;;;23.15;11.65;;;6.40;99.90;;;;;;10343336;28;20057;-64
2022/01/02 00:51:03;;;;;;;26.08;11.70;;;6.30;99.90;;;;;;10342520;28;20486;-64
2022/01/02 00:56:05;;;;;;;24.50;11.23;;;6.30;99.90;;;;;;10340864;28;20050;-65
2022/01/02 01:01:14;;;;;;;27.42;10.98;;;6.20;99.90;;;;;;10347130;28;20050;-64
2022/01/02 01:06:18;;;;;;;22.92;12.40;;;6.10;99.90;;;;;;10344920;28;20064;-64
2022/01/02 01:11:23;;;;;;;17.48;9.25;;;6.00;99.90;;;;;;10346305;28;20083;-63
2022/01/02 01:16:26;;;;;;;17.83;9.20;;;5.90;99.90;;;;;;10341683;28;20058;-64
2022/01/02 01:21:29;;;;;;;21.42;9.63;;;5.90;99.90;;;;;;10345518;28;20061;-62
2022/01/02 01:26:30;;;;;;;21.77;8.98;;;5.80;99.90;;;;;;10339078;28;20105;-63
2022/01/02 01:31:32;;;;;;;24.63;11.13;;;5.80;99.90;;;;;;10339707;28;20141;-64
2022/01/02 01:36:34;;;;;;;27.45;9.65;;;5.80;99.90;;;;;;10345954;28;20049;-64
2022/01/02 01:41:38;;;;;;;18.35;9.30;;;5.70;99.90;;;;;;10343138;28;20100;-64
2022/01/02 01:46:41;;;;;;;24.08;9.77;;;5.70;99.90;;;;;;10343742;28;20061;-64
2022/01/02 01:51:44;;;;;;;25.55;8.65;;;5.80;99.90;;;;;;10340551;28;20045;-63
2022/01/02 01:56:46;;;;;;;24.20;9.80;;;5.80;99.90;;;;;;10344085;28;20563;-63
2022/01/02 02:01:49;;;;;;;27.77;8.55;;;5.70;99.90;;;;;;10339369;28;20065;-64
2022/01/02 02:06:54;;;;;;;19.95;8.77;;;5.60;99.90;;;;;;10341759;28;20041;-64
2022/01/02 02:11:59;;;;;;;22.83;8.82;;;5.60;99.90;;;;;;10344450;28;20046;-63
2022/01/02 02:17:01;;;;;;;22.45;8.57;;;5.60;99.90;;;;;;10341939;28;20046;-68
2022/01/02 02:22:03;;;;;;;36.58;11.52;;;5.60;99.90;;;;;;10342995;28;20437;-64
2022/01/02 02:27:05;;;;;;;47.22;13.77;;;5.80;99.90;;;;;;10338791;28;20073;-64
2022/01/02 02:32:06;;;;;;;49.72;14.25;;;6.10;99.90;;;;;;10341821;28;20046;-64
2022/01/02 02:37:08;;;;;;;42.72;15.20;;;6.30;99.90;;;;;;10337746;28;20508;-64
2022/01/02 02:42:50;;;;;;;49.40;14.30;;;6.50;99.90;;;;;;10341395;28;20077;-64
2022/01/02 02:52:57;;;;;;;50.63;16.27;;;7.00;99.90;;;;;;10345528;28;20135;-63
2022/01/02 02:58:16;;;;;;;55.47;15.18;;;7.10;99.90;;;;;;10339771;28;20045;-64
2022/01/02 03:03:18;;;;;;;40.97;13.35;;;7.10;99.90;;;;;;10332785;28;20042;-64
2022/01/02 03:08:20;;;;;;;36.88;11.48;;;7.20;99.90;;;;;;10343609;28;20128;-64
2022/01/02 03:13:22;;;;;;;45.70;12.52;;;7.30;99.90;;;;;;10339589;28;20045;-63
2022/01/02 03:18:23;;;;;;;36.05;12.10;;;7.40;99.90;;;;;;10342320;28;20108;-64
2022/01/02 03:23:25;;;;;;;38.30;11.48;;;7.40;99.90;;;;;;10343052;28;20054;-64
2022/01/02 03:28:27;;;;;;;37.55;12.32;;;7.40;99.90;;;;;;10350366;28;20100;-64
2022/01/02 03:33:28;;;;;;;32.28;11.35;;;7.50;99.90;;;;;;10349209;28;20080;-64
2022/01/02 03:38:31;;;;;;;37.20;10.88;;;7.50;99.90;;;;;;10351170;28;20049;-64
2022/01/02 03:43:32;;;;;;;24.60;10.70;;;7.60;99.90;;;;;;10350211;28;20042;-64
2022/01/02 03:48:34;;;;;;;35.65;11.50;;;7.60;99.90;;;;;;10349371;28;20041;-64
2022/01/02 03:53:38;;;;;;;32.35;10.15;;;7.60;99.90;;;;;;10343920;28;20057;-64
2022/01/02 03:58:40;;;;;;;24.98;10.20;;;7.60;99.90;;;;;;10352191;28;20069;-64
2022/01/02 04:03:42;;;;;;;25.80;9.57;;;7.70;99.90;;;;;;10344454;28;20431;-64
2022/01/02 04:08:43;;;;;;;23.15;9.98;;;7.70;99.90;;;;;;10345434;28;20038;-64
2022/01/02 04:13:45;;;;;;;22.92;9.55;;;7.60;99.90;;;;;;10344956;28;20073;-64
2022/01/02 04:18:48;;;;;;;24.08;10.35;;;7.70;99.90;;;;;;10354259;28;21057;-64
2022/01/02 04:23:49;;;;;;;21.88;9.70;;;7.60;99.90;;;;;;10344809;28;20096;-64
2022/01/02 04:28:51;;;;;;;20.15;8.05;;;7.60;99.90;;;;;;10351697;28;20050;-64
2022/01/02 04:33:53;;;;;;;22.95;9.15;;;7.60;99.90;;;;;;10345849;28;20046;-64
2022/01/02 04:38:54;;;;;;;22.80;8.60;;;7.60;99.90;;;;;;10345133;28;20103;-64
2022/01/02 04:43:56;;;;;;;26.08;9.13;;;7.50;99.90;;;;;;10339385;28;20047;-64
2022/01/02 04:48:58;;;;;;;19.15;9.10;;;7.50;99.90;;;;;;10347321;28;20472;-64
2022/01/02 04:54:00;;;;;;;26.00;8.90;;;7.50;99.90;;;;;;10351306;28;20386;-63
2022/01/02 04:59:02;;;;;;;16.05;8.10;;;7.50;99.90;;;;;;10345686;28;20050;-64
2022/01/02 05:04:04;;;;;;;20.42;8.80;;;7.50;99.90;;;;;;10345784;28;20046;-64
2022/01/02 05:09:06;;;;;;;25.00;9.40;;;7.50;99.90;;;;;;10345575;28;20038;-64
2022/01/02 05:14:07;;;;;;;22.05;8.70;;;7.50;99.90;;;;;;10341551;28;20104;-64
2022/01/02 05:19:09;;;;;;;19.45;8.32;;;7.50;99.90;;;;;;10344801;28;20480;-64
2022/01/02 05:24:11;;;;;;;21.85;7.55;;;7.50;99.90;;;;;;10343274;28;20108;-64
2022/01/02 05:29:13;;;;;;;19.20;8.77;;;7.50;99.90;;;;;;10349924;28;20104;-64
2022/01/02 05:34:14;;;;;;;17.33;7.40;;;7.50;99.90;;;;;;10343340;28;20400;-64
2022/01/02 05:39:18;;;;;;;16.25;8.05;;;7.50;99.90;;;;;;10333817;28;20169;-63
2022/01/02 05:44:20;;;;;;;19.92;8.60;;;7.50;99.90;;;;;;10347012;28;20407;-64
2022/01/02 05:49:22;;;;;;;21.65;8.60;;;7.40;99.90;;;;;;10346293;28;20108;-64
2022/01/02 05:54:23;;;;;;;17.80;8.35;;;7.30;99.90;;;;;;10341350;28;20548;-63
2022/01/02 05:59:25;;;;;;;20.02;8.70;;;7.30;99.90;;;;;;10344298;28;20062;-64
2022/01/02 06:04:28;;;;;;;22.90;8.60;;;7.30;99.90;;;;;;10347660;28;20382;-64
2022/01/02 06:09:29;;;;;;;21.15;8.60;;;7.30;99.90;;;;;;10344611;28;20053;-64
2022/01/02 06:14:31;;;;;;;20.45;8.32;;;7.20;99.90;;;;;;10337751;28;20046;-64
2022/01/02 06:19:33;;;;;;;17.60;8.23;;;7.30;99.90;;;;;;10344568;28;20073;-64
2022/01/02 06:24:35;;;;;;;15.95;6.93;;;7.40;99.90;;;;;;10340410;28;20054;-64
2022/01/02 06:29:37;;;;;;;19.25;7.90;;;7.30;99.90;;;;;;10337644;28;20038;-64
2022/01/02 06:34:38;;;;;;;20.25;8.32;;;7.30;99.90;;;;;;10345032;28;20077;-64
2022/01/02 06:39:40;;;;;;;16.02;8.27;;;7.30;99.90;;;;;;10343624;28;20073;-64
2022/01/02 06:44:42;;;;;;;17.83;9.07;;;7.40;99.90;;;;;;10341130;28;20046;-64
2022/01/02 06:49:43;;;;;;;16.45;8.13;;;7.40;99.90;;;;;;10344824;28;20084;-63
2022/01/02 06:54:45;;;;;;;16.60;7.40;;;7.50;99.90;;;;;;10339495;28;20469;-64
2022/01/02 06:59:48;;;;;;;19.80;8.93;;;7.50;99.90;;;;;;10342862;28;20802;-64
2022/01/02 07:04:49;;;;;;;15.68;7.40;;;7.50;99.90;;;;;;10346904;28;20074;-63
2022/01/02 07:09:51;;;;;;;15.90;6.25;;;7.50;99.90;;;;;;10350051;28;20131;-64
2022/01/02 07:14:53;;;;;;;17.48;7.82;;;7.40;99.90;;;;;;10351303;28;20500;-64
2022/01/02 07:19:54;;;;;;;22.95;9.10;;;7.50;99.90;;;;;;10346700;28;20045;-64
2022/01/02 07:24:56;;;;;;;20.80;9.48;;;7.50;99.90;;;;;;10352493;28;20065;-63
2022/01/02 07:29:59;;;;;;;18.65;8.52;;;7.50;99.90;;;;;;10349626;28;20069;-62
2022/01/02 07:35:00;;;;;;;17.80;7.72;;;7.60;99.90;;;;;;10346395;28;20488;-63
2022/01/02 07:40:04;;;;;;;14.57;7.13;;;7.60;99.90;;;;;;10347230;28;20053;-63
2022/01/02 07:45:06;;;;;;;17.52;7.55;;;7.60;99.90;;;;;;10348245;28;20050;-63
2022/01/02 07:50:08;;;;;;;18.95;9.75;;;7.60;99.90;;;;;;10338559;28;20057;-63
2022/01/02 07:55:10;;;;;;;19.45;7.65;;;7.60;99.90;;;;;;10346842;28;20093;-63
2022/01/02 08:00:12;;;;;;;16.60;6.90;;;7.60;99.90;;;;;;10347382;28;20112;-63
2022/01/02 08:05:14;;;;;;;18.42;7.55;;;7.70;99.90;;;;;;10346850;28;20164;-63
2022/01/02 08:10:15;;;;;;;17.98;8.10;;;7.70;99.90;;;;;;10347496;28;20049;-63
2022/01/02 08:15:17;;;;;;;18.45;8.63;;;7.70;99.90;;;;;;10342923;28;20057;-63
2022/01/02 08:20:19;;;;;;;16.48;7.32;;;7.70;99.90;;;;;;10348397;28;20090;-63
2022/01/02 08:25:21;;;;;;;15.93;7.70;;;7.70;99.90;;;;;;10348754;28;20046;-62
2022/01/02 08:30:23;;;;;;;19.67;7.57;;;7.60;99.90;;;;;;10340586;28;20077;-62
2022/01/02 08:35:24;;;;;;;16.15;8.95;;;7.60;99.90;;;;;;10345389;28;20045;-62
2022/01/02 08:40:26;;;;;;;16.90;8.07;;;7.60;99.90;;;;;;10348898;28;20057;-63
2022/01/02 08:45:28;;;;;;;16.65;7.78;;;7.70;99.90;;;;;;10346873;28;20065;-63
2022/01/02 08:50:30;;;;;;;17.67;8.15;;;7.70;99.90;;;;;;10350393;28;20464;-63
2022/01/02 08:55:33;;;;;;;14.02;6.85;;;7.70;99.90;;;;;;10342771;28;20487;-63
2022/01/02 09:00:35;;;;;;;15.82;7.32;;;7.70;99.90;;;;;;10346017;28;20089;-63
2022/01/02 09:05:37;;;;;;;18.88;9.77;;;7.70;99.90;;;;;;10341742;28;20485;-62
2022/01/02 09:10:39;;;;;;;20.77;9.77;;;7.80;99.90;;;;;;10344199;28;20058;-63
2022/01/02 09:15:40;;;;;;;19.98;8.85;;;7.80;99.90;;;;;;10345243;28;20147;-63
2022/01/02 09:20:43;;;;;;;16.80;7.65;;;7.90;99.90;;;;;;10341588;28;20060;-63
2022/01/02 09:25:44;;;;;;;16.40;7.63;;;7.80;99.90;;;;;;10344450;28;20104;-63
2022/01/02 09:30:46;;;;;;;12.85;7.00;;;7.80;99.90;;;;;;10342328;28;20054;-63
2022/01/02 09:35:48;;;;;;;15.48;6.90;;;7.80;99.90;;;;;;10342747;28;20046;-63
2022/01/02 09:40:50;;;;;;;19.10;7.68;;;7.80;99.90;;;;;;10341120;28;20103;-63
2022/01/02 09:45:52;;;;;;;17.23;7.90;;;7.80;99.90;;;;;;10341889;28;20073;-63
2022/01/02 09:50:54;;;;;;;17.60;8.20;;;7.80;99.90;;;;;;10352296;28;20049;-63
2022/01/02 09:55:56;;;;;;;12.48;7.05;;;7.80;99.90;;;;;;10342224;28;20081;-62
2022/01/02 10:00:58;;;;;;;13.43;7.10;;;7.80;99.90;;;;;;10333147;28;20041;-62
2022/01/02 10:06:00;;;;;;;13.60;7.50;;;7.80;99.90;;;;;;10344580;28;20141;-63
2022/01/02 10:11:15;;;;;;;16.55;7.68;;;7.90;99.90;;;;;;10342155;28;20050;-63
2022/01/02 10:16:26;;;;;;;17.17;7.75;;;7.80;99.90;;;;;;10341205;28;20125;-64
2022/01/02 10:21:37;;;;;;;14.23;7.40;;;7.80;99.90;;;;;;10340681;28;20119;-64
2022/01/02 10:26:40;;;;;;;14.15;7.45;;;7.80;99.90;;;;;;10338015;28;20057;-63
2022/01/02 10:31:46;;;;;;;17.17;7.87;;;7.70;99.90;;;;;;10338043;28;20057;-64
2022/01/02 10:36:49;;;;;;;15.50;8.50;;;7.90;99.90;;;;;;10341410;28;20042;-63
2022/01/02 10:41:53;;;;;;;16.55;7.07;;;7.80;99.90;;;;;;10341022;28;20050;-63
2022/01/02 10:47:16;;;;;;;15.02;7.25;;;7.80;99.90;;;;;;10342000;28;20050;-63
2022/01/02 10:52:21;;;;;;;20.80;7.95;;;7.80;99.90;;;;;;10340015;28;20050;-64
2022/01/02 10:57:22;;;;;;;13.13;7.47;;;7.80;99.90;;;;;;10343619;28;20120;-63
2022/01/02 11:02:26;;;;;;;16.42;6.78;;;7.90;99.90;;;;;;10355417;28;20053;-63
2022/01/02 11:07:38;;;;;;;13.02;6.85;;;7.80;99.90;;;;;;10341855;28;20054;-63
2022/01/02 11:12:40;;;;;;;13.60;6.80;;;7.80;99.90;;;;;;10338619;28;20082;-63
2022/01/02 11:17:43;;;;;;;21.27;8.07;;;7.80;99.90;;;;;;10340887;28;20058;-62
2022/01/02 11:23:01;;;;;;;52.92;12.70;;;7.90;99.90;;;;;;10338338;28;20133;-62
2022/01/02 11:28:09;;;;;;;23.13;8.43;;;8.00;99.90;;;;;;10340837;28;20161;-63
2022/01/02 11:33:15;;;;;;;;;;;8.10;99.90;;;;;;10336788;28;20568;-62
2022/01/02 11:38:21;;;;;;;13.27;6.30;;;8.00;99.90;;;;;;10336918;28;19921;-62
2022/01/02 11:43:38;;;;;;;12.95;6.75;;;8.00;99.90;;;;;;10336419;28;20061;-62
2022/01/02 11:48:40;;;;;;;13.83;7.27;;;8.10;99.90;;;;;;10345983;28;20054;-62
2022/01/02 11:53:51;;;;;;;13.00;6.57;;;8.10;99.90;;;;;;10347663;28;20045;-62
2022/01/02 11:58:53;;;;;;;16.42;7.63;;;8.20;99.90;;;;;;10346214;28;20192;-64
2022/01/02 12:03:55;;;;;;;11.50;6.57;;;8.30;99.90;;;;;;10342187;28;20054;-61
2022/01/02 12:08:56;;;;;;;13.02;6.70;;;8.30;99.90;;;;;;10346705;28;20127;-62
2022/01/02 12:14:07;;;;;;;14.38;8.77;;;8.40;99.90;;;;;;10348324;28;20072;-62
2022/01/02 12:19:09;;;;;;;17.48;7.93;;;8.40;99.90;;;;;;10346054;28;20115;-62
2022/01/02 12:24:12;;;;;;;13.60;6.40;;;8.30;99.90;;;;;;10352137;28;20049;-63
2022/01/02 12:29:14;;;;;;;10.05;5.60;;;8.40;99.90;;;;;;10346431;28;20049;-63
2022/01/02 12:34:18;;;;;;;11.15;5.13;;;8.50;99.90;;;;;;10344247;28;20131;-63
2022/01/02 12:39:39;;;;;;;9.93;5.13;;;8.50;99.90;;;;;;10341013;28;20088;-62
2022/01/02 12:44:44;;;;;;;12.50;5.05;;;8.70;99.90;;;;;;10342428;28;20061;-62
2022/01/02 12:49:56;;;;;;;10.43;4.80;;;8.80;99.90;;;;;;10344212;28;20042;-63
2022/01/02 12:54:58;;;;;;;16.35;6.80;;;8.90;99.90;;;;;;10344876;28;20077;-63
2022/01/02 12:59:59;;;;;;;11.35;4.53;;;9.00;99.90;;;;;;10347832;28;20045;-62
2022/01/02 13:05:03;;;;;;;7.10;4.15;;;9.00;99.90;;;;;;10342193;28;20100;-63
2022/01/02 13:10:13;;;;;;;8.38;4.03;;;9.10;99.90;;;;;;10343118;28;20053;-63
2022/01/02 13:15:17;;;;;;;8.98;4.22;;;9.10;99.90;;;;;;10342923;28;20127;-63
2022/01/02 13:20:39;;;;;;;8.85;4.72;;;9.20;99.90;;;;;;10341219;28;20042;-63
2022/01/02 13:25:43;;;;;;;10.27;4.63;;;9.30;99.90;;;;;;10357167;28;20056;-64
2022/01/02 13:30:53;;;;;;;9.90;4.82;;;9.30;99.90;;;;;;10338160;28;20046;-64
2022/01/02 13:35:57;;;;;;;9.57;5.10;;;9.30;99.90;;;;;;10345245;28;20042;-63
2022/01/02 13:41:09;;;;;;;11.10;4.47;;;9.30;99.90;;;;;;10345008;28;20045;-63
2022/01/02 13:46:11;;;;;;;11.10;4.00;;;9.40;99.90;;;;;;10342179;28;20492;-63
2022/01/02 13:51:25;;;;;;;7.72;3.92;;;9.40;99.90;;;;;;10345199;28;20053;-63
2022/01/02 13:56:27;;;;;;;10.98;4.47;;;9.40;99.90;;;;;;10345359;28;20120;-62
2022/01/02 14:01:30;;;;;;;7.20;3.72;;;9.40;99.90;;;;;;10339322;28;20054;-62
2022/01/02 14:06:34;;;;;;;10.57;4.68;;;9.40;99.90;;;;;;10339255;28;20060;-62
2022/01/02 14:11:38;;;;;;;10.98;5.05;;;9.40;99.90;;;;;;10341208;28;20053;-62
2022/01/02 14:22:10;;;;;;;;;;;9.50;99.90;;;;;;10337235;28;20424;-62
2022/01/02 14:27:24;;;;;;;9.20;4.20;;;9.50;99.90;;;;;;10340956;28;20399;-62
2022/01/02 14:32:27;;;;;;;6.15;3.30;;;9.60;99.90;;;;;;10337446;28;20465;-62
2022/01/02 14:37:30;;;;;;;8.95;4.13;;;9.70;99.90;;;;;;10340610;28;20869;-62
2022/01/02 14:42:32;;;;;;;11.05;4.50;;;9.70;99.90;;;;;;10334708;28;20049;-62
2022/01/02 14:47:36;;;;;;;7.93;3.60;;;9.80;99.90;;;;;;10342980;28;20508;-62
2022/01/02 14:52:39;;;;;;;6.10;3.33;;;9.80;99.90;;;;;;10328021;28;20073;-62
2022/01/02 14:57:43;;;;;;;6.93;3.30;;;9.80;99.90;;;;;;10343612;28;20172;-62
2022/01/02 15:02:46;;;;;;;6.72;3.35;;;9.70;99.90;;;;;;10343296;28;20049;-62
2022/01/02 15:07:48;;;;;;;6.95;3.83;;;9.70;99.90;;;;;;10342299;28;20056;-63
2022/01/02 15:12:50;;;;;;;6.32;3.22;;;9.60;99.90;;;;;;10337870;28;20540;-62
2022/01/02 15:17:54;;;;;;;8.35;3.55;;;9.70;99.90;;;;;;10353699;28;20116;-62
2022/01/02 15:22:55;;;;;;;8.32;2.72;;;9.80;99.90;;;;;;10348934;28;20051;-62
2022/01/02 15:28:00;;;;;;;6.47;3.72;;;9.80;99.90;;;;;;10344896;28;20133;-64
2022/01/02 15:33:02;;;;;;;6.68;2.90;;;9.90;99.90;;;;;;10348489;28;20096;-62
2022/01/02 15:38:04;;;;;;;5.75;2.95;;;10.00;99.90;;;;;;10354699;28;20042;-63
2022/01/02 15:43:06;;;;;;;8.85;3.58;;;10.10;99.90;;;;;;10348198;28;20092;-63
2022/01/02 15:48:08;;;;;;;5.22;2.80;;;10.10;99.90;;;;;;10348588;28;20073;-63
2022/01/02 15:53:09;;;;;;;5.93;2.70;;;10.20;99.90;;;;;;10344498;28;20132;-63
2022/01/02 15:58:11;;;;;;;8.98;3.42;;;10.20;99.90;;;;;;10348135;28;20544;-64
2022/01/02 16:03:14;;;;;;;5.18;3.05;;;10.30;99.90;;;;;;10352970;28;20053;-63
2022/01/02 16:08:16;;;;;;;4.10;2.42;;;10.30;99.90;;;;;;10347792;28;20388;-63
2022/01/02 16:13:18;;;;;;;10.43;3.13;;;10.30;99.90;;;;;;10350314;28;20492;-62
2022/01/02 16:18:20;;;;;;;5.30;3.30;;;10.40;99.90;;;;;;10349942;28;20050;-61
2022/01/02 16:23:23;;;;;;;6.38;2.72;;;10.40;99.90;;;;;;10342216;28;20138;-62
2022/01/02 16:28:24;;;;;;;9.02;3.70;;;10.40;99.90;;;;;;10344434;28;20078;-63
2022/01/02 16:33:27;;;;;;;19.13;6.00;;;10.50;99.90;;;;;;10348965;28;20046;-63
2022/01/02 16:38:29;;;;;;;5.10;2.55;;;10.50;99.90;;;;;;10344284;28;20050;-63
2022/01/02 16:43:31;;;;;;;8.15;2.28;;;10.50;99.90;;;;;;10332205;28;20073;-63
2022/01/02 16:48:33;;;;;;;4.50;2.03;;;10.60;99.90;;;;;;10345228;28;20037;-63
2022/01/02 16:53:35;;;;;;;3.60;1.90;;;10.70;99.90;;;;;;10340234;28;20132;-63
2022/01/02 16:58:37;;;;;;;5.22;2.17;;;10.70;99.90;;;;;;10341514;28;20127;-63
2022/01/02 17:03:39;;;;;;;4.38;1.63;;;10.70;99.90;;;;;;10341842;28;20053;-63
2022/01/02 17:08:45;;;;;;;4.60;1.40;;;10.80;99.90;;;;;;10347308;28;20054;-63
2022/01/02 17:13:50;;;;;;;4.97;1.23;;;10.80;99.90;;;;;;10345032;28;20133;-63
2022/01/02 17:18:52;;;;;;;3.08;1.35;;;10.90;99.90;;;;;;10344314;28;20056;-61
2022/01/02 17:23:54;;;;;;;2.95;1.15;;;10.90;99.90;;;;;;10341804;28;20050;-61
2022/01/02 17:28:58;;;;;;;3.60;1.10;;;11.00;99.90;;;;;;10341426;28;20057;-62
2022/01/02 17:34:01;;;;;;;2.10;0.88;;;11.00;99.90;;;;;;10345257;28;20100;-62
2022/01/02 17:39:02;;;;;;;1.73;1.10;;;11.00;99.90;;;;;;10342541;28;20129;-66
2022/01/02 17:44:04;;;;;;;2.17;1.05;;;11.00;99.90;;;;;;10346180;28;20120;-62
2022/01/02 17:49:06;;;;;;;3.42;1.15;;;11.10;99.90;;;;;;10338482;28;20057;-64
2022/01/02 17:54:09;;;;;;;6.78;0.90;;;11.00;99.90;;;;;;10335115;28;20153;-65
2022/01/02 17:59:11;;;;;;;2.97;1.08;;;11.00;99.90;;;;;;10342233;28;20065;-66
2022/01/02 18:04:13;;;;;;;5.82;1.05;;;10.90;99.90;;;;;;10340247;28;20583;-64
2022/01/02 18:09:22;;;;;;;2.63;0.70;;;10.80;99.90;;;;;;10339711;28;20050;-64
2022/01/02 18:14:24;;;;;;;2.72;1.00;;;10.80;99.90;;;;;;10341939;28;20116;-64
2022/01/02 18:19:25;;;;;;;2.97;1.33;;;10.80;99.90;;;;;;10342782;28;20041;-64
2022/01/02 18:24:28;;;;;;;1.65;1.02;;;10.90;99.90;;;;;;10338323;28;20049;-64
2022/01/02 18:29:30;;;;;;;3.45;1.20;;;10.90;99.90;;;;;;10340385;28;20104;-64
2022/01/02 18:34:33;;;;;;;2.58;1.00;;;10.90;99.90;;;;;;10340458;28;20057;-64
2022/01/02 18:39:35;;;;;;;4.03;1.48;;;10.90;99.90;;;;;;10344534;28;20049;-64
2022/01/02 18:44:37;;;;;;;3.30;1.10;;;11.00;99.90;;;;;;10340418;28;20077;-64
2022/01/02 18:49:39;;;;;;;3.45;1.27;;;11.00;99.90;;;;;;10340263;28;20131;-63
2022/01/02 18:54:41;;;;;;;4.30;1.02;;;11.00;99.90;;;;;;10332083;28;20304;-63
2022/01/02 18:59:43;;;;;;;4.68;1.60;;;11.00;99.90;;;;;;10339665;28;20057;-64
2022/01/02 19:04:45;;;;;;;5.32;1.27;;;11.00;99.90;;;;;;10333691;28;20563;-64
2022/01/02 19:09:48;;;;;;;5.60;1.30;;;11.10;99.90;;;;;;10340129;28;20053;-63
2022/01/02 19:14:50;;;;;;;3.22;1.05;;;11.00;99.90;;;;;;10338220;28;20052;-63
2022/01/02 19:19:52;;;;;;;3.90;1.02;;;11.10;99.90;;;;;;10341618;28;20175;-64
2022/01/02 19:24:54;;;;;;;4.72;1.58;;;11.10;99.90;;;;;;10340020;28;20108;-64
2022/01/02 19:29:56;;;;;;;3.95;1.48;;;11.20;99.90;;;;;;10340480;28;20045;-64
2022/01/02 19:34:58;;;;;;;2.58;0.77;;;11.20;99.90;;;;;;10334009;28;20151;-63
2022/01/02 19:40:00;;;;;;;2.88;1.08;;;11.30;99.90;;;;;;10345372;28;20450;-64
2022/01/02 19:45:04;;;;;;;4.20;0.60;;;11.40;99.90;;;;;;10339956;28;20115;-63
2022/01/02 19:50:09;;;;;;;2.60;0.95;;;11.40;99.90;;;;;;10345685;28;20131;-64
2022/01/02 19:55:11;;;;;;;2.83;0.70;;;11.40;99.90;;;;;;10340109;28;20572;-63
2022/01/02 20:00:20;;;;;;;4.90;1.17;;;11.40;99.90;;;;;;10340332;28;20124;-64
2022/01/02 20:05:22;;;;;;;2.17;0.90;;;11.40;99.90;;;;;;10334398;28;20166;-64
2022/01/02 20:10:27;;;;;;;2.78;0.47;;;11.40;99.90;;;;;;10349265;28;20104;-64
2022/01/02 20:15:28;;;;;;;2.40;0.77;;;11.50;99.90;;;;;;10342785;28;20061;-64
2022/01/02 20:20:30;;;;;;;6.15;0.90;;;11.50;99.90;;;;;;10346019;28;20077;-64
2022/01/02 20:25:32;;;;;;;59.65;9.07;;;11.50;99.90;;;;;;10339314;28;20549;-65
2022/01/02 20:30:35;;;;;;;9.45;1.70;;;11.50;99.90;;;;;;10342705;28;20110;-65
2022/01/02 20:35:36;;;;;;;2.42;1.17;;;11.50;99.90;;;;;;10346148;28;20105;-65
2022/01/02 20:40:39;;;;;;;2.47;0.88;;;11.60;99.90;;;;;;10346307;28;20123;-64
2022/01/02 20:45:41;;;;;;;4.30;0.55;;;11.60;99.90;;;;;;10344728;28;20065;-64
2022/01/02 20:50:51;;;;;;;2.97;0.70;;;11.60;99.90;;;;;;10337227;28;20053;-64
2022/01/02 20:55:53;;;;;;;3.85;0.70;;;11.60;99.90;;;;;;10345099;28;20085;-65
2022/01/02 21:00:58;;;;;;;5.88;0.60;;;11.50;99.90;;;;;;10344248;28;20131;-64
2022/01/02 21:06:00;;;;;;;4.60;1.02;;;11.60;99.90;;;;;;10337344;28;20038;-64
2022/01/02 21:11:02;;;;;;;2.67;0.57;;;11.60;99.90;;;;;;10350131;28;20046;-64
2022/01/02 21:16:04;;;;;;;3.22;0.57;;;11.50;99.90;;;;;;10342255;28;20052;-64
2022/01/02 21:21:07;;;;;;;3.92;0.70;;;11.50;99.90;;;;;;10344511;28;20054;-64
2022/01/02 21:26:10;;;;;;;4.97;0.77;;;11.50;99.90;;;;;;10339588;28;20119;-65
2022/01/02 21:31:12;;;;;;;1.42;0.75;;;11.50;99.90;;;;;;10344024;28;20133;-65
2022/01/02 21:36:15;;;;;;;4.07;1.00;;;11.50;99.90;;;;;;10339652;28;20129;-64
2022/01/02 21:41:16;;;;;;;2.08;1.30;;;11.50;99.90;;;;;;10339722;28;20450;-64
2022/01/02 21:46:21;;;;;;;6.88;0.80;;;11.50;99.90;;;;;;10342354;28;20072;-64
2022/01/02 21:51:25;;;;;;;3.30;0.65;;;11.60;99.90;;;;;;10338597;28;20052;-64
2022/01/02 21:56:27;;;;;;;4.72;1.30;;;11.60;99.90;;;;;;10337899;28;20077;-63
2022/01/02 22:01:36;;;;;;;1.80;0.52;;;11.60;99.90;;;;;;10337867;28;20065;-63
2022/01/02 22:06:42;;;;;;;1.73;0.50;;;11.60;99.90;;;;;;10342026;28;20120;-63
2022/01/02 22:11:44;;;;;;;1.88;0.77;;;11.60;99.90;;;;;;10334471;28;20125;-63
2022/01/02 22:16:46;;;;;;;5.65;1.48;;;11.60;99.90;;;;;;10343164;28;20124;-63
2022/01/02 22:21:52;;;;;;;2.33;0.70;;;11.60;99.90;;;;;;10338964;28;20029;-64
2022/01/02 22:26:54;;;;;;;4.53;0.75;;;11.60;99.90;;;;;;10339330;28;20089;-64
2022/01/02 22:31:57;;;;;;;2.63;0.90;;;11.60;99.90;;;;;;10338191;28;20100;-64
2022/01/02 22:36:58;;;;;;;4.60;0.88;;;11.40;99.90;;;;;;10343352;28;20111;-65
2022/01/02 22:42:00;;;;;;;5.45;1.10;;;11.00;99.90;;;;;;10339653;28;20082;-65
2022/01/02 22:47:03;;;;;;;0.00;0.00;;;10.70;99.90;;;;;;10329996;28;20054;-63
2022/01/02 22:52:06;;;;;;;0.00;0.00;;;9.60;99.90;;;;;;10342263;28;20144;-62
2022/01/02 22:57:09;;;;;;;0.00;0.00;;;8.80;99.90;;;;;;10342021;28;20078;-62
2022/01/02 23:02:11;;;;;;;0.00;0.00;;;8.30;99.90;;;;;;10339170;28;20077;-62
2022/01/02 23:07:14;;;;;;;0.00;0.00;;;8.20;99.90;;;;;;10342966;28;20061;-63
2022/01/02 23:12:16;;;;;;;0.00;0.00;;;8.20;99.90;;;;;;10340108;28;20068;-62
2022/01/02 23:17:20;;;;;;;0.00;0.00;;;8.20;99.90;;;;;;10344744;28;20066;-62
2022/01/02 23:22:24;;;;;;;0.00;0.00;;;8.40;99.90;;;;;;10334769;28;20046;-61
2022/01/02 23:27:27;;;;;;;0.00;0.00;;;8.50;99.90;;;;;;10341242;28;20103;-63
2022/01/02 23:32:28;;;;;;;0.00;0.00;;;8.60;99.90;;;;;;10341897;28;20500;-63
2022/01/02 23:37:31;;;;;;;0.00;0.00;;;8.80;99.90;;;;;;10339333;28;20087;-64
2022/01/02 23:42:33;;;;;;;0.00;0.00;;;8.90;99.90;;;;;;10346139;28;20137;-63
2022/01/02 23:47:38;;;;;;;0.00;0.00;;;8.80;99.90;;;;;;10350078;28;20042;-62
2022/01/02 23:52:57;;;;;;;0.00;0.00;;;8.80;99.90;;;;;;10346034;28;20085;-61
2022/01/02 23:58:05;;;;;;;0.00;0.00;;;8.70;99.90;;;;;;10344750;28;20050;-61
